Time;durP1;ratioP1;P1;durP2;ratioP2;P2;SDS_P1;SDS_P2;PMS_P1;PMS_P2;Temp;Humidity;BMP_temperature;BMP_pressure;BME280_temperature;BME280_humidity;BME280_pressure;Samples;Min_cycle;Max_cycle;Signal;HPM_P1;HPM_P2
2023/03/17 00:01:11;;;;;;;0.00;0.00;;;11.30;51.70;;;;;;5093066;28;20837;-79
2023/03/17 00:03:40;;;;;;;0.32;0.32;;;11.40;52.10;;;;;;5092962;28;20056;-79
2023/03/17 00:06:17;;;;;;;0.10;0.10;;;11.50;51.70;;;;;;5081779;28;20035;-79
2023/03/17 00:08:45;;;;;;;0.10;0.10;;;11.40;52.10;;;;;;5075059;28;20035;-78
2023/03/17 00:11:16;;;;;;;0.10;0.10;;;11.60;52.00;;;;;;5077681;28;20051;-78
2023/03/17 00:13:43;;;;;;;0.40;0.40;;;11.60;52.00;;;;;;5091564;28;20480;-79
2023/03/17 00:16:17;;;;;;;0.43;0.43;;;11.50;52.40;;;;;;5076091;28;20727;-79
2023/03/17 00:18:44;;;;;;;0.10;0.10;;;11.50;52.20;;;;;;5088403;28;20045;-78
2023/03/17 00:21:16;;;;;;;0.30;0.30;;;11.40;52.90;;;;;;5079742;28;20146;-79
2023/03/17 00:23:47;;;;;;;0.10;0.10;;;11.40;53.00;;;;;;5094861;28;20852;-79
2023/03/17 00:26:13;;;;;;;0.10;0.10;;;11.40;53.10;;;;;;5090564;28;20028;-78
2023/03/17 00:28:38;;;;;;;0.10;0.10;;;11.60;53.10;;;;;;5088708;28;20043;-79
2023/03/17 00:31:26;;;;;;;0.10;0.10;;;11.50;53.80;;;;;;5091450;28;20051;-78
2023/03/17 00:33:53;;;;;;;0.10;0.10;;;11.40;54.00;;;;;;5072077;28;20126;-79
2023/03/17 00:36:26;;;;;;;0.38;0.38;;;11.40;54.00;;;;;;5098313;28;20031;-78
2023/03/17 00:38:53;;;;;;;0.10;0.10;;;11.30;54.50;;;;;;5094839;28;20089;-78
2023/03/17 00:41:19;;;;;;;0.20;0.20;;;11.30;54.80;;;;;;5095675;28;20019;-79
2023/03/17 00:43:45;;;;;;;0.10;0.10;;;11.30;55.20;;;;;;5094580;28;20032;-79
2023/03/17 00:46:17;;;;;;;0.10;0.10;;;11.30;55.70;;;;;;5087498;28;20386;-78
2023/03/17 00:48:43;;;;;;;0.10;0.10;;;11.30;56.00;;;;;;5083175;28;20031;-79
2023/03/17 00:51:09;;;;;;;0.17;0.17;;;11.30;55.80;;;;;;5100408;28;20217;-79
2023/03/17 00:53:35;;;;;;;0.10;0.10;;;11.20;56.30;;;;;;5075858;28;20546;-79
2023/03/17 00:56:01;;;;;;;0.17;0.17;;;11.20;56.60;;;;;;5097331;28;20027;-79
2023/03/17 00:58:32;;;;;;;0.10;0.10;;;11.20;57.20;;;;;;5094701;28;20118;-79
2023/03/17 01:00:59;;;;;;;0.10;0.10;;;11.20;57.10;;;;;;5081781;28;20020;-79
2023/03/17 01:03:26;;;;;;;0.10;0.10;;;11.20;57.40;;;;;;5080955;28;20043;-78
2023/03/17 01:05:53;;;;;;;;;;;11.20;57.90;;;;;;5088056;28;20040;-78
2023/03/17 01:08:19;;;;;;;;;;;11.20;58.30;;;;;;5078320;28;19969;-79
2023/03/17 01:10:45;;;;;;;0.82;0.82;;;11.10;59.00;;;;;;5077699;28;19912;-78
2023/03/17 01:13:13;;;;;;;2.53;0.85;;;11.10;58.60;;;;;;5090824;28;20399;-79
2023/03/17 01:15:43;;;;;;;0.10;0.10;;;11.10;59.20;;;;;;5101485;28;20546;-80
2023/03/17 01:18:10;;;;;;;0.10;0.10;;;11.20;59.30;;;;;;5100353;28;20108;-79
2023/03/17 01:20:37;;;;;;;0.10;0.10;;;11.10;59.60;;;;;;5076396;28;20676;-79
2023/03/17 01:23:03;;;;;;;0.10;0.10;;;11.10;60.00;;;;;;5097482;28;20034;-80
2023/03/17 01:25:30;;;;;;;1.45;0.80;;;11.00;60.60;;;;;;5071726;28;20109;-79
2023/03/17 01:27:58;;;;;;;1.45;0.98;;;11.10;61.10;;;;;;5070378;28;20042;-79
2023/03/17 01:30:31;;;;;;;0.10;0.10;;;11.00;61.30;;;;;;5097491;28;20567;-80
2023/03/17 01:32:57;;;;;;;0.17;0.17;;;11.00;62.20;;;;;;5091639;28;20051;-79
2023/03/17 01:35:25;;;;;;;0.60;0.60;;;11.00;62.70;;;;;;5092938;28;20024;-79
2023/03/17 01:37:51;;;;;;;0.65;0.65;;;11.00;62.90;;;;;;5100181;28;20039;-79
2023/03/17 01:40:26;;;;;;;0.52;0.52;;;10.90;63.20;;;;;;5091120;28;20403;-79
2023/03/17 01:43:07;;;;;;;0.10;0.10;;;10.90;63.70;;;;;;5096343;28;20031;-79
2023/03/17 01:46:11;;;;;;;0.10;0.10;;;10.90;64.60;;;;;;5101357;27;20040;-79
2023/03/17 01:49:08;;;;;;;0.55;0.55;;;10.80;64.80;;;;;;5081669;28;20039;-78
2023/03/17 01:51:43;;;;;;;0.30;0.30;;;10.80;65.40;;;;;;5075254;28;20135;-79
2023/03/17 01:54:13;;;;;;;1.80;1.42;;;10.70;66.10;;;;;;5102902;28;20032;-80
2023/03/17 01:56:42;;;;;;;0.47;0.47;;;10.80;66.50;;;;;;5095821;27;20372;-79
2023/03/17 01:59:15;;;;;;;0.50;0.50;;;10.80;66.90;;;;;;5078451;28;20403;-79
2023/03/17 02:01:44;;;;;;;0.10;0.10;;;10.70;67.60;;;;;;5100407;28;20059;-80
2023/03/17 02:04:11;;;;;;;0.20;0.20;;;10.70;67.90;;;;;;5091908;28;20051;-79
2023/03/17 02:06:37;;;;;;;0.30;0.30;;;10.70;68.70;;;;;;5091666;28;20040;-80
2023/03/17 02:09:03;;;;;;;0.10;0.10;;;10.60;69.10;;;;;;5092547;28;20047;-80
2023/03/17 02:11:30;;;;;;;0.77;0.77;;;10.80;69.70;;;;;;5094149;28;20067;-80
2023/03/17 02:13:56;;;;;;;0.52;0.52;;;10.70;70.20;;;;;;5071447;28;20024;-81
2023/03/17 02:16:22;;;;;;;0.25;0.25;;;10.70;70.80;;;;;;5097812;28;20093;-79
2023/03/17 02:18:48;;;;;;;0.77;0.60;;;10.60;71.30;;;;;;5100609;28;20790;-78
2023/03/17 02:21:41;;;;;;;3.70;0.52;;;10.60;71.80;;;;;;5089555;28;20020;-79
2023/03/17 02:24:19;;;;;;;0.10;0.10;;;10.60;72.30;;;;;;5094350;28;20073;-79
2023/03/17 02:26:47;;;;;;;0.30;0.30;;;10.60;72.70;;;;;;5082913;28;20027;-79
2023/03/17 02:29:13;;;;;;;0.17;0.17;;;10.60;73.10;;;;;;5093196;28;20031;-80
2023/03/17 02:31:39;;;;;;;0.55;0.55;;;10.50;73.60;;;;;;5096276;28;20024;-79
2023/03/17 02:34:05;;;;;;;0.10;0.10;;;10.60;74.30;;;;;;5094969;28;20467;-80
2023/03/17 02:36:31;;;;;;;0.10;0.10;;;10.60;74.90;;;;;;5079037;28;20043;-79
2023/03/17 02:38:57;;;;;;;0.10;0.10;;;10.60;75.20;;;;;;5086100;28;20027;-80
2023/03/17 02:41:23;;;;;;;0.10;0.10;;;10.60;75.50;;;;;;5079384;28;20035;-79
2023/03/17 02:43:48;;;;;;;0.10;0.10;;;10.60;75.70;;;;;;5093854;28;20020;-80
2023/03/17 02:46:14;;;;;;;0.10;0.10;;;10.60;76.10;;;;;;5078210;28;20444;-79
2023/03/17 02:48:40;;;;;;;0.10;0.10;;;10.60;76.60;;;;;;5078675;28;20529;-78
2023/03/17 02:51:06;;;;;;;0.00;0.00;;;10.60;77.10;;;;;;5083701;28;20426;-79
2023/03/17 02:53:31;;;;;;;0.10;0.10;;;10.60;77.40;;;;;;5082688;28;20020;-79
2023/03/17 02:55:57;;;;;;;0.00;0.00;;;10.60;77.80;;;;;;5093731;28;20034;-79
2023/03/17 02:58:23;;;;;;;0.10;0.10;;;10.70;77.90;;;;;;5090186;28;20418;-78
2023/03/17 03:00:49;;;;;;;0.10;0.10;;;10.70;78.50;;;;;;5089901;28;20020;-79
2023/03/17 03:03:15;;;;;;;0.17;0.17;;;10.60;78.90;;;;;;5091317;28;20055;-78
2023/03/17 03:05:41;;;;;;;0.10;0.10;;;10.60;79.30;;;;;;5094922;28;20747;-78
2023/03/17 03:08:07;;;;;;;0.20;0.20;;;10.50;79.50;;;;;;5080860;28;20078;-78
2023/03/17 03:10:33;;;;;;;0.13;0.13;;;10.70;79.60;;;;;;5083663;28;21622;-80
2023/03/17 03:13:00;;;;;;;0.10;0.10;;;10.60;80.00;;;;;;5100058;28;20020;-80
2023/03/17 03:15:26;;;;;;;0.30;0.30;;;10.60;80.60;;;;;;5100587;28;20024;-80
2023/03/17 03:17:51;;;;;;;0.10;0.10;;;10.50;80.90;;;;;;5073387;28;20653;-78
2023/03/17 03:20:17;;;;;;;0.20;0.20;;;10.70;80.50;;;;;;5099685;28;20115;-79
2023/03/17 03:22:43;;;;;;;0.03;0.03;;;10.60;81.20;;;;;;5075795;28;20112;-78
2023/03/17 03:25:08;;;;;;;0.10;0.10;;;10.50;82.00;;;;;;5095532;28;20035;-79
2023/03/17 03:27:34;;;;;;;0.10;0.10;;;10.50;82.20;;;;;;5076723;28;20768;-79
2023/03/17 03:30:00;;;;;;;0.10;0.10;;;10.60;82.20;;;;;;5078405;28;20082;-79
2023/03/17 03:32:26;;;;;;;0.25;0.25;;;10.60;82.30;;;;;;5085237;28;20234;-79
2023/03/17 03:34:52;;;;;;;0.10;0.10;;;10.50;82.70;;;;;;5097552;28;20073;-79
2023/03/17 03:37:18;;;;;;;0.10;0.10;;;10.60;83.00;;;;;;5099078;27;20040;-79
2023/03/17 03:39:44;;;;;;;0.70;0.63;;;10.60;83.30;;;;;;5102731;28;20318;-79
2023/03/17 03:42:10;;;;;;;1.88;1.30;;;10.60;83.30;;;;;;5090701;28;20138;-79
2023/03/17 03:44:36;;;;;;;0.10;0.10;;;10.60;83.50;;;;;;5093236;28;20832;-78
2023/03/17 03:47:01;;;;;;;0.10;0.10;;;10.60;83.80;;;;;;5101651;28;20131;-79
2023/03/17 03:49:27;;;;;;;0.15;0.15;;;10.70;83.90;;;;;;5100010;28;20044;-79
2023/03/17 03:51:53;;;;;;;0.10;0.10;;;10.70;84.40;;;;;;5093341;28;20383;-79
2023/03/17 03:54:19;;;;;;;0.73;0.73;;;10.50;84.90;;;;;;5094568;28;20024;-79
2023/03/17 03:56:44;;;;;;;0.28;0.28;;;10.50;85.10;;;;;;5102005;28;20046;-78
2023/03/17 03:59:10;;;;;;;1.17;0.95;;;10.50;85.30;;;;;;5090225;28;20053;-79
2023/03/17 04:01:37;;;;;;;0.10;0.10;;;10.50;85.40;;;;;;5092159;28;20034;-79
2023/03/17 04:04:03;;;;;;;;;;;10.50;86.00;;;;;;5092138;28;20044;-79
2023/03/17 04:06:29;;;;;;;0.10;0.10;;;10.50;86.10;;;;;;5094287;27;19912;-80
2023/03/17 04:08:54;;;;;;;3.97;1.48;;;10.50;86.40;;;;;;5096851;28;20040;-79
2023/03/17 04:11:20;;;;;;;0.10;0.10;;;10.50;86.50;;;;;;5096731;28;20071;-79
2023/03/17 04:13:46;;;;;;;0.10;0.10;;;10.50;86.80;;;;;;5099455;28;20035;-80
2023/03/17 04:16:11;;;;;;;1.65;1.10;;;10.50;87.10;;;;;;5094635;28;20740;-81
2023/03/17 04:18:37;;;;;;;0.10;0.10;;;10.60;86.90;;;;;;5095033;28;20475;-80
2023/03/17 04:21:03;;;;;;;0.10;0.10;;;10.60;86.90;;;;;;5092668;28;20921;-80
2023/03/17 04:23:30;;;;;;;0.10;0.10;;;10.60;87.60;;;;;;5094510;28;20028;-81
2023/03/17 04:25:55;;;;;;;0.20;0.20;;;10.50;87.80;;;;;;5097949;28;20024;-78
2023/03/17 04:28:21;;;;;;;0.40;0.40;;;10.40;88.40;;;;;;5096125;28;20066;-78
2023/03/17 04:30:47;;;;;;;0.10;0.10;;;10.40;88.50;;;;;;5097656;28;20039;-79
2023/03/17 04:33:12;;;;;;;0.13;0.13;;;10.50;88.80;;;;;;5097296;28;20072;-78
2023/03/17 04:35:38;;;;;;;2.47;1.20;;;10.40;89.00;;;;;;5100149;28;20028;-78
2023/03/17 04:38:04;;;;;;;2.33;0.40;;;10.50;88.70;;;;;;5096874;28;20271;-81
2023/03/17 04:40:29;;;;;;;0.32;0.32;;;10.50;89.00;;;;;;5097428;28;20019;-79
2023/03/17 04:42:55;;;;;;;0.17;0.17;;;10.40;89.40;;;;;;5075760;28;20034;-80
2023/03/17 04:45:21;;;;;;;0.10;0.10;;;10.40;89.60;;;;;;5094165;28;20494;-80
2023/03/17 04:47:47;;;;;;;0.10;0.10;;;10.50;89.20;;;;;;5096523;28;20031;-81
2023/03/17 04:50:13;;;;;;;0.52;0.52;;;10.60;89.50;;;;;;5096302;28;20036;-81
2023/03/17 04:52:39;;;;;;;0.10;0.10;;;10.60;89.30;;;;;;5098396;28;20559;-80
2023/03/17 04:55:07;;;;;;;1.83;0.32;;;10.50;89.50;;;;;;5066748;28;20077;-79
2023/03/17 04:57:33;;;;;;;0.10;0.10;;;10.60;89.60;;;;;;5084781;28;20105;-80
2023/03/17 04:59:59;;;;;;;0.50;0.50;;;10.60;89.90;;;;;;5084673;28;20076;-80
2023/03/17 05:02:25;;;;;;;0.38;0.38;;;10.60;90.00;;;;;;5097684;28;21219;-80
2023/03/17 05:04:50;;;;;;;0.10;0.10;;;10.70;89.90;;;;;;5091787;28;20059;-78
2023/03/17 05:07:16;;;;;;;3.38;0.75;;;10.70;90.00;;;;;;5088187;28;20020;-81
2023/03/17 05:09:42;;;;;;;0.10;0.10;;;10.60;90.20;;;;;;5093903;28;20510;-81
2023/03/17 05:12:08;;;;;;;0.10;0.10;;;10.60;90.40;;;;;;5098420;28;20054;-81
2023/03/17 05:14:35;;;;;;;0.15;0.15;;;10.60;90.60;;;;;;5089643;28;20016;-80
2023/03/17 05:17:01;;;;;;;0.28;0.28;;;10.60;90.50;;;;;;5095785;28;20036;-80
2023/03/17 05:19:26;;;;;;;1.88;0.20;;;10.60;90.50;;;;;;5080468;28;20627;-82
2023/03/17 05:21:52;;;;;;;2.90;0.77;;;10.60;90.50;;;;;;5075337;28;20039;-82
2023/03/17 05:24:18;;;;;;;0.10;0.10;;;10.70;90.70;;;;;;5076018;28;20017;-83
2023/03/17 05:26:44;;;;;;;0.20;0.20;;;10.70;90.70;;;;;;5098272;28;20020;-83
2023/03/17 05:29:10;;;;;;;0.50;0.50;;;10.70;90.70;;;;;;5080401;28;20036;-80
2023/03/17 05:31:36;;;;;;;0.10;0.10;;;10.70;90.70;;;;;;5073187;28;20066;-81
2023/03/17 05:34:02;;;;;;;4.60;0.45;;;10.80;90.60;;;;;;5100841;28;20526;-81
2023/03/17 05:36:28;;;;;;;0.17;0.17;;;10.70;90.90;;;;;;5080796;28;20064;-81
2023/03/17 05:38:54;;;;;;;0.10;0.10;;;10.80;90.80;;;;;;5099455;28;20024;-83
2023/03/17 05:41:20;;;;;;;0.10;0.10;;;10.70;90.80;;;;;;5102336;28;20144;-84
2023/03/17 05:43:46;;;;;;;0.10;0.10;;;10.80;91.10;;;;;;5081270;28;20059;-84
2023/03/17 05:46:12;;;;;;;0.10;0.10;;;10.60;91.50;;;;;;5104726;28;20058;-84
2023/03/17 05:48:38;;;;;;;0.10;0.10;;;10.70;91.10;;;;;;5104135;28;20063;-83
2023/03/17 05:51:04;;;;;;;2.20;0.85;;;10.80;91.00;;;;;;5101136;28;20864;-84
2023/03/17 05:53:30;;;;;;;0.73;0.73;;;10.80;91.10;;;;;;5098869;28;20713;-83
2023/03/17 05:55:55;;;;;;;0.10;0.10;;;10.80;91.30;;;;;;5102969;28;20024;-82
2023/03/17 05:58:21;;;;;;;0.22;0.22;;;10.90;91.20;;;;;;5096127;28;21226;-82
2023/03/17 06:00:47;;;;;;;0.25;0.25;;;10.90;91.10;;;;;;5096842;27;20757;-84
2023/03/17 06:03:13;;;;;;;0.10;0.10;;;10.90;91.30;;;;;;5096352;28;20783;-85
2023/03/17 06:05:39;;;;;;;0.13;0.13;;;10.80;91.50;;;;;;5092186;28;20024;-84
2023/03/17 06:08:05;;;;;;;0.20;0.20;;;10.80;91.50;;;;;;5102448;28;20028;-81
2023/03/17 06:10:31;;;;;;;0.10;0.10;;;10.80;91.50;;;;;;5103120;28;20032;-82
2023/03/17 06:12:57;;;;;;;0.10;0.10;;;10.90;91.50;;;;;;5079176;28;20020;-86
2023/03/17 06:15:24;;;;;;;1.10;1.00;;;10.90;91.30;;;;;;5100840;28;20028;-84
2023/03/17 06:17:50;;;;;;;0.23;0.23;;;10.80;91.60;;;;;;5104382;28;20122;-83
2023/03/17 06:20:17;;;;;;;0.20;0.20;;;10.90;91.60;;;;;;5072827;28;20308;-83
2023/03/17 06:22:42;;;;;;;0.30;0.30;;;10.90;91.50;;;;;;5100768;28;20081;-84
2023/03/17 06:25:09;;;;;;;0.20;0.20;;;10.90;91.50;;;;;;5096918;28;20031;-87
2023/03/17 06:27:36;;;;;;;0.10;0.10;;;11.00;91.60;;;;;;5102997;28;20046;-85
2023/03/17 06:30:02;;;;;;;0.35;0.22;;;11.00;91.50;;;;;;5082851;28;20134;-86
2023/03/17 06:32:29;;;;;;;0.10;0.10;;;10.90;91.80;;;;;;5103949;28;20132;-88
2023/03/17 06:34:55;;;;;;;1.95;1.65;;;10.90;92.00;;;;;;5094672;28;20114;-85
2023/03/17 06:37:20;;;;;;;0.10;0.10;;;10.90;92.00;;;;;;5104357;28;20538;-84
2023/03/17 06:39:47;;;;;;;0.75;0.75;;;10.90;92.00;;;;;;5095663;28;20024;-85
2023/03/17 06:42:12;;;;;;;0.10;0.10;;;11.00;91.90;;;;;;5089539;28;20463;-86
2023/03/17 06:44:38;;;;;;;0.30;0.30;;;11.00;92.00;;;;;;5077528;28;20277;-86
2023/03/17 06:47:05;;;;;;;2.10;0.70;;;11.00;91.90;;;;;;5084838;28;20031;-84
2023/03/17 06:49:31;;;;;;;0.10;0.10;;;11.00;92.20;;;;;;5103176;28;21330;-83
2023/03/17 06:51:57;;;;;;;0.10;0.10;;;11.00;91.90;;;;;;5103669;28;20051;-84
2023/03/17 06:54:24;;;;;;;0.10;0.10;;;10.90;92.10;;;;;;5104046;28;20032;-84
2023/03/17 06:56:51;;;;;;;0.20;0.20;;;11.00;92.10;;;;;;5098339;28;20058;-83
2023/03/17 06:59:17;;;;;;;0.10;0.10;;;11.10;92.10;;;;;;5079770;28;20035;-82
2023/03/17 07:01:44;;;;;;;0.47;0.38;;;11.10;92.20;;;;;;5104503;28;20023;-83
2023/03/17 07:04:10;;;;;;;0.10;0.10;;;11.20;92.00;;;;;;5102198;28;20044;-83
2023/03/17 07:06:36;;;;;;;1.30;1.20;;;11.20;91.80;;;;;;5104481;28;20556;-82
2023/03/17 07:09:02;;;;;;;0.22;0.22;;;11.20;92.00;;;;;;5099071;28;20040;-83
2023/03/17 07:11:29;;;;;;;0.10;0.10;;;11.20;92.00;;;;;;5101205;28;20122;-83
2023/03/17 07:13:55;;;;;;;1.00;0.75;;;11.30;91.80;;;;;;5079724;28;20028;-82
2023/03/17 07:16:21;;;;;;;0.20;0.20;;;11.30;91.70;;;;;;5079381;28;20059;-83
2023/03/17 07:18:47;;;;;;;0.10;0.10;;;11.40;91.80;;;;;;5103815;28;20078;-83
2023/03/17 07:21:13;;;;;;;0.20;0.20;;;11.30;91.80;;;;;;5104009;28;20077;-85
2023/03/17 07:23:38;;;;;;;0.35;0.35;;;11.40;91.90;;;;;;5095695;28;20020;-85
2023/03/17 07:26:04;;;;;;;0.98;0.65;;;11.50;91.90;;;;;;5098263;28;20549;-85
2023/03/17 07:28:30;;;;;;;0.82;0.75;;;11.40;91.90;;;;;;5080190;28;20761;-84
2023/03/17 07:30:56;;;;;;;0.30;0.30;;;11.50;91.70;;;;;;5085038;28;20027;-84
2023/03/17 07:33:23;;;;;;;0.17;0.17;;;11.50;91.90;;;;;;5080733;28;20039;-84
2023/03/17 07:35:49;;;;;;;0.25;0.25;;;11.60;91.70;;;;;;5082578;28;20031;-84
2023/03/17 07:38:16;;;;;;;0.10;0.10;;;11.60;91.70;;;;;;5080171;28;20043;-83
2023/03/17 07:40:42;;;;;;;;;;;11.70;91.60;;;;;;5100013;28;20028;-82
2023/03/17 07:43:08;;;;;;;0.10;0.10;;;11.60;91.70;;;;;;5097654;28;20378;-85
2023/03/17 07:45:34;;;;;;;0.37;0.23;;;11.70;91.70;;;;;;5075923;28;20024;-83
2023/03/17 07:48:04;;;;;;;1.60;0.73;;;11.70;91.70;;;;;;5099989;28;20032;-84
2023/03/17 07:50:31;;;;;;;0.10;0.10;;;11.70;91.80;;;;;;5078900;28;20028;-82
2023/03/17 07:52:57;;;;;;;0.20;0.20;;;11.70;91.90;;;;;;5100044;28;20034;-82
2023/03/17 07:55:23;;;;;;;0.30;0.30;;;11.70;91.80;;;;;;5073517;28;20411;-84
2023/03/17 07:57:50;;;;;;;0.10;0.10;;;11.80;91.90;;;;;;5078139;28;20027;-84
2023/03/17 08:00:16;;;;;;;0.10;0.10;;;11.80;92.00;;;;;;5082998;28;20738;-84
2023/03/17 08:02:42;;;;;;;0.87;0.87;;;11.80;92.00;;;;;;5091378;28;20562;-83
2023/03/17 08:05:08;;;;;;;0.10;0.10;;;11.90;91.70;;;;;;5080017;28;20269;-83
2023/03/17 08:07:36;;;;;;;0.10;0.10;;;11.90;91.60;;;;;;5074159;28;20028;-84
2023/03/17 08:10:03;;;;;;;0.20;0.20;;;12.00;91.50;;;;;;5076626;28;20078;-85
2023/03/17 08:12:28;;;;;;;0.10;0.10;;;12.20;91.40;;;;;;5078151;28;20065;-83
2023/03/17 08:14:54;;;;;;;0.10;0.10;;;12.30;91.10;;;;;;5073970;28;20949;-83
2023/03/17 08:17:20;;;;;;;0.15;0.15;;;12.40;91.10;;;;;;5077338;28;20032;-82
2023/03/17 08:19:46;;;;;;;0.10;0.10;;;12.50;91.00;;;;;;5076405;28;20024;-83
2023/03/17 08:22:11;;;;;;;0.10;0.10;;;12.70;90.80;;;;;;5077856;28;20055;-84
2023/03/17 08:24:39;;;;;;;0.10;0.10;;;12.70;90.90;;;;;;5081225;28;20020;-82
2023/03/17 08:27:06;;;;;;;0.10;0.10;;;12.90;90.60;;;;;;5083925;28;20019;-83
2023/03/17 08:29:32;;;;;;;0.10;0.10;;;13.00;90.60;;;;;;5081041;28;20047;-83
2023/03/17 08:31:58;;;;;;;0.20;0.20;;;13.10;90.00;;;;;;5096914;28;20032;-84
2023/03/17 08:34:25;;;;;;;0.10;0.10;;;13.30;90.10;;;;;;5081764;28;20065;-84
2023/03/17 08:36:50;;;;;;;;;;;13.50;89.20;;;;;;5095664;28;20101;-84
2023/03/17 08:39:16;;;;;;;0.17;0.17;;;13.40;89.50;;;;;;5080899;28;19956;-84
2023/03/17 08:41:42;;;;;;;0.40;0.40;;;13.40;89.20;;;;;;5077345;28;20327;-84
2023/03/17 08:44:09;;;;;;;0.10;0.10;;;13.50;89.90;;;;;;5080177;28;20027;-85
2023/03/17 08:46:36;;;;;;;0.13;0.13;;;14.50;87.00;;;;;;5079385;28;20112;-82
2023/03/17 08:49:02;;;;;;;0.70;0.70;;;14.40;86.20;;;;;;5082876;28;20032;-84
2023/03/17 08:51:31;;;;;;;0.00;0.00;;;14.20;86.70;;;;;;5101685;28;20027;-83
2023/03/17 08:53:57;;;;;;;0.10;0.10;;;14.30;85.90;;;;;;5076892;28;20824;-83
2023/03/17 08:56:23;;;;;;;0.00;0.00;;;14.30;86.60;;;;;;5076065;28;20034;-84
2023/03/17 08:58:50;;;;;;;0.10;0.10;;;14.20;86.30;;;;;;5083614;28;20032;-84
2023/03/17 09:01:16;;;;;;;0.03;0.03;;;14.10;86.20;;;;;;5079126;28;20019;-83
2023/03/17 09:03:44;;;;;;;0.10;0.10;;;14.20;86.80;;;;;;5076573;28;20059;-83
2023/03/17 09:06:11;;;;;;;0.15;0.15;;;14.10;86.20;;;;;;5085941;28;20028;-84
2023/03/17 09:08:38;;;;;;;0.47;0.45;;;14.10;86.40;;;;;;5091396;28;20565;-83
2023/03/17 09:11:05;;;;;;;0.15;0.15;;;14.00;86.60;;;;;;5090545;28;20020;-83
2023/03/17 09:13:32;;;;;;;0.10;0.10;;;13.90;86.10;;;;;;5097148;28;20068;-83
2023/03/17 09:15:58;;;;;;;0.10;0.10;;;13.70;87.30;;;;;;5093569;28;20024;-83
2023/03/17 09:18:24;;;;;;;0.00;0.00;;;13.70;88.10;;;;;;5101891;28;20034;-83
2023/03/17 09:20:50;;;;;;;0.10;0.10;;;13.70;87.40;;;;;;5091614;28;20077;-82
2023/03/17 09:23:16;;;;;;;0.10;0.10;;;13.80;87.40;;;;;;5074630;28;20031;-83
2023/03/17 09:25:42;;;;;;;0.97;0.73;;;14.00;86.40;;;;;;5102115;28;20032;-83
2023/03/17 09:30:34;;;;;;;0.00;0.00;;;14.10;86.70;;;;;;5058394;28;20040;-83
2023/03/17 09:33:00;;;;;;;0.08;0.08;;;14.10;86.80;;;;;;5101691;28;20107;-82
2023/03/17 09:35:30;;;;;;;0.00;0.00;;;14.00;86.90;;;;;;5077431;28;20024;-84
2023/03/17 09:37:56;;;;;;;0.10;0.10;;;13.90;86.90;;;;;;5082570;28;20027;-83
2023/03/17 09:40:31;;;;;;;0.20;0.20;;;13.90;86.30;;;;;;5067388;28;20028;-83
2023/03/17 09:43:06;;;;;;;0.00;0.00;;;14.10;86.90;;;;;;5080383;28;20494;-84
2023/03/17 09:45:37;;;;;;;0.43;0.43;;;14.30;85.80;;;;;;5083989;28;20135;-82
2023/03/17 09:48:45;;;;;;;0.00;0.00;;;14.40;85.60;;;;;;5092157;28;20015;-84
2023/03/17 09:51:15;;;;;;;0.10;0.10;;;14.40;86.90;;;;;;5069342;28;20028;-83
2023/03/17 09:54:00;;;;;;;0.22;0.22;;;14.10;85.80;;;;;;5083875;28;20035;-84
2023/03/17 09:56:29;;;;;;;0.10;0.10;;;14.30;85.50;;;;;;5070716;28;20728;-84
2023/03/17 09:59:28;;;;;;;0.00;0.00;;;14.10;84.90;;;;;;5073691;28;20036;-83
2023/03/17 10:01:54;;;;;;;0.10;0.10;;;14.20;85.00;;;;;;5081932;28;20016;-83
2023/03/17 10:04:20;;;;;;;0.00;0.00;;;14.20;84.00;;;;;;5076994;28;20060;-84
2023/03/17 10:06:48;;;;;;;0.20;0.20;;;14.30;84.40;;;;;;5067611;28;20039;-83
2023/03/17 10:09:15;;;;;;;0.00;0.00;;;14.20;84.00;;;;;;5073916;28;20707;-83
2023/03/17 10:11:47;;;;;;;0.00;0.00;;;14.10;85.20;;;;;;5086396;28;20027;-83
2023/03/17 10:14:46;;;;;;;0.00;0.00;;;14.30;84.40;;;;;;5094329;28;20105;-83
2023/03/17 10:17:19;;;;;;;0.40;0.38;;;14.40;83.50;;;;;;5103829;28;20559;-83
2023/03/17 10:19:54;;;;;;;0.00;0.00;;;14.60;83.30;;;;;;5083516;28;20027;-82
2023/03/17 10:22:38;;;;;;;0.10;0.10;;;14.50;84.10;;;;;;5084641;28;20020;-82
2023/03/17 10:25:12;;;;;;;0.00;0.00;;;14.30;84.40;;;;;;5077164;28;20028;-84
2023/03/17 10:27:39;;;;;;;0.00;0.00;;;14.30;84.20;;;;;;5081549;28;20051;-83
2023/03/17 10:30:17;;;;;;;0.00;0.00;;;14.40;84.30;;;;;;5084163;28;20043;-83
2023/03/17 10:32:45;;;;;;;0.00;0.00;;;14.30;84.10;;;;;;5100115;28;20043;-84
2023/03/17 10:35:13;;;;;;;0.10;0.10;;;14.20;84.80;;;;;;5104068;28;20035;-83
2023/03/17 10:37:41;;;;;;;0.00;0.00;;;14.10;84.80;;;;;;5082488;28;20526;-83
2023/03/17 10:40:19;;;;;;;0.00;0.00;;;14.00;85.00;;;;;;5081134;28;20108;-84
2023/03/17 10:42:53;;;;;;;0.00;0.00;;;14.00;85.40;;;;;;5079241;28;20031;-83
2023/03/17 10:45:33;;;;;;;0.10;0.10;;;13.90;85.70;;;;;;5094404;28;20054;-82
2023/03/17 10:48:01;;;;;;;0.10;0.10;;;13.90;86.10;;;;;;5095001;28;20111;-83
2023/03/17 10:50:31;;;;;;;0.10;0.10;;;14.00;86.00;;;;;;5074231;28;20036;-83
2023/03/17 10:53:03;;;;;;;0.25;0.25;;;14.10;85.60;;;;;;5078046;28;20024;-83
2023/03/17 10:55:48;;;;;;;0.13;0.13;;;14.20;85.50;;;;;;5099235;28;20019;-83
2023/03/17 10:58:21;;;;;;;0.00;0.00;;;14.30;85.20;;;;;;5099562;28;20028;-83
2023/03/17 11:01:04;;;;;;;1.55;0.85;;;14.30;84.90;;;;;;5075914;28;20032;-84
2023/03/17 11:03:34;;;;;;;0.10;0.10;;;14.30;84.00;;;;;;5072378;28;20044;-82
2023/03/17 11:06:08;;;;;;;0.10;0.10;;;14.70;83.50;;;;;;5074859;28;20137;-82
2023/03/17 11:08:55;;;;;;;0.47;0.47;;;14.70;82.90;;;;;;5088869;28;20020;-84
2023/03/17 11:11:23;;;;;;;0.00;0.00;;;14.70;83.60;;;;;;5099560;28;20749;-83
2023/03/17 11:13:48;;;;;;;0.00;0.00;;;14.90;82.50;;;;;;5084636;28;20031;-83
2023/03/17 11:16:23;;;;;;;0.90;0.90;;;14.80;82.60;;;;;;5082171;28;20028;-84
2023/03/17 11:18:54;;;;;;;0.00;0.00;;;14.80;82.40;;;;;;5087655;28;20036;-84
2023/03/17 11:21:30;;;;;;;0.10;0.10;;;14.80;82.10;;;;;;5073152;28;20037;-82
2023/03/17 11:24:03;;;;;;;0.17;0.17;;;14.80;81.70;;;;;;5082049;28;20091;-83
2023/03/17 11:26:44;;;;;;;0.60;0.32;;;15.10;81.10;;;;;;5074733;28;20099;-84
2023/03/17 11:29:31;;;;;;;0.10;0.10;;;15.30;80.00;;;;;;5083668;28;20559;-83
2023/03/17 11:31:59;;;;;;;0.30;0.30;;;15.30;79.70;;;;;;5078844;28;20062;-82
2023/03/17 11:34:42;;;;;;;0.20;0.20;;;15.20;79.00;;;;;;5074196;28;20027;-83
2023/03/17 11:37:25;;;;;;;0.13;0.13;;;15.10;79.50;;;;;;5078019;28;20061;-83
2023/03/17 11:40:13;;;;;;;0.22;0.22;;;15.20;79.60;;;;;;5098824;27;20028;-83
2023/03/17 11:43:17;;;;;;;0.10;0.10;;;15.00;78.80;;;;;;5066618;28;20024;-83
2023/03/17 11:46:11;;;;;;;0.00;0.00;;;15.00;80.10;;;;;;5069131;28;20093;-82
2023/03/17 11:49:01;;;;;;;0.00;0.00;;;15.20;79.10;;;;;;5094655;28;20023;-83
2023/03/17 11:51:32;;;;;;;0.00;0.00;;;15.30;79.30;;;;;;5081164;28;20035;-83
2023/03/17 11:54:23;;;;;;;1.88;1.20;;;15.40;78.70;;;;;;5070801;28;20745;-83
2023/03/17 11:56:49;;;;;;;0.47;0.43;;;15.00;79.90;;;;;;5077874;28;20063;-84
2023/03/17 11:59:30;;;;;;;0.00;0.00;;;14.90;80.30;;;;;;5082651;28;20023;-82
2023/03/17 12:02:18;;;;;;;0.00;0.00;;;14.70;80.90;;;;;;5077825;28;20020;-84
2023/03/17 12:04:54;;;;;;;0.10;0.10;;;14.90;80.20;;;;;;5093023;28;20059;-83
2023/03/17 12:07:36;;;;;;;0.10;0.10;;;15.10;80.00;;;;;;5090897;28;20097;-83
2023/03/17 12:10:35;;;;;;;0.10;0.10;;;15.00;81.30;;;;;;5074236;28;20052;-84
2023/03/17 12:13:32;;;;;;;0.00;0.00;;;15.00;80.00;;;;;;5089208;28;20570;-83
2023/03/17 12:16:21;;;;;;;0.10;0.10;;;15.10;80.80;;;;;;5083469;28;20033;-82
2023/03/17 12:18:56;;;;;;;0.00;0.00;;;15.00;80.00;;;;;;5092279;28;20035;-83
2023/03/17 12:21:51;;;;;;;0.10;0.10;;;15.30;80.20;;;;;;5070755;28;20023;-84
2023/03/17 12:24:40;;;;;;;0.30;0.30;;;15.10;79.10;;;;;;5097121;28;20080;-84
2023/03/17 12:27:22;;;;;;;0.00;0.00;;;15.20;80.60;;;;;;5072209;28;20546;-83
2023/03/17 12:30:22;;;;;;;0.75;0.63;;;14.90;80.00;;;;;;5068774;28;20074;-83
2023/03/17 12:32:57;;;;;;;0.40;0.40;;;14.90;81.50;;;;;;5093838;28;20040;-83
2023/03/17 12:35:35;;;;;;;0.00;0.00;;;14.90;79.60;;;;;;5095591;28;20475;-84
2023/03/17 12:38:08;;;;;;;0.00;0.00;;;15.00;80.30;;;;;;5072772;28;20027;-84
2023/03/17 12:40:38;;;;;;;0.08;0.08;;;15.20;80.50;;;;;;5097155;28;20027;-83
2023/03/17 12:43:26;;;;;;;0.10;0.10;;;15.20;80.10;;;;;;5077890;28;20024;-84
2023/03/17 12:46:33;;;;;;;0.00;0.00;;;15.10;79.30;;;;;;5071514;28;20588;-83
2023/03/17 12:49:23;;;;;;;0.00;0.00;;;15.30;79.70;;;;;;5057665;28;20502;-84
2023/03/17 12:52:11;;;;;;;0.00;0.00;;;15.40;79.40;;;;;;5070326;28;20028;-83
2023/03/17 12:54:39;;;;;;;0.00;0.00;;;15.40;79.70;;;;;;5074349;28;20023;-84
2023/03/17 12:57:21;;;;;;;0.10;0.10;;;15.30;78.90;;;;;;5091559;28;20105;-83
2023/03/17 12:59:50;;;;;;;0.20;0.20;;;15.10;81.10;;;;;;5084761;28;20020;-84
2023/03/17 13:02:34;;;;;;;0.03;0.03;;;15.00;80.10;;;;;;5077462;28;20038;-83
2023/03/17 13:05:04;;;;;;;0.43;0.43;;;14.90;81.20;;;;;;5098757;28;20173;-83